Weather reports worldwide

Advertisment
Capo Spartivento, Italy (16469): temperature & dewpoint: 08.07.2020 11:00:00 - 14.07.2020 11:00:00 (CEST)Capo Spartivento, Italy (16469): wind speed: 08.07.2020 11:00:00 - 14.07.2020 11:00:00 (CEST)Capo Spartivento, Italy (16469): wind direction: 08.07.2020 11:00:00 - 14.07.2020 11:00:00 (CEST)Capo Spartivento, Italy (16469): reduced air pressure: 08.07.2020 11:00:00 - 14.07.2020 11:00:00 (CEST)Capo Spartivento, Italy (16469): precipitation: 08.07.2020 11:00:00 - 14.07.2020 11:00:00 (CEST)
Date & Time tt [°C] td [°C] ff [km/h] ff [kn] dd ppp [hPa] rr [mm]
14.07.2020 11:00:00 26,6 20,6 5 3 S 1012,7 -
14.07.2020 10:00:00 26,1 19,9 11 6 SW 1012,6 -
14.07.2020 09:00:00 25,5 20,0 4 2 SSW 1012,3 -
14.07.2020 08:00:00 25,1 20,3 9 5 ESE 1012,1 0,0
14.07.2020 07:00:00 23,4 19,7 2 1 NNE 1012,1 -
14.07.2020 06:00:00 23,4 19,5 4 2 N 1012,0 -
14.07.2020 05:00:00 23,7 19,8 4 2 NE 1011,7 -
14.07.2020 04:00:00 23,7 19,6 8 4 NNE 1011,7 -
14.07.2020 03:00:00 23,9 19,6 4 2 NE 1011,9 -
14.07.2020 02:00:00 24,0 19,4 4 2 NNE 1012,5 0,0
14.07.2020 01:00:00 23,8 19,2 4 2 N 1012,9 -
14.07.2020 00:00:00 23,9 19,6 4 2 N 1013,2 -
13.07.2020 23:00:00 23,5 19,2 9 5 NNW 1013,2 -
13.07.2020 22:00:00 23,7 19,1 8 4 N 1012,9 -
13.07.2020 21:00:00 24,6 18,9 8 4 ENE 1012,5 -
13.07.2020 20:00:00 25,3 18,9 9 5 E 1012,2 0,0
13.07.2020 19:00:00 25,1 19,4 13 7 E 1012,2 -
13.07.2020 18:00:00 25,3 19,1 16 9 E 1012,4 -
13.07.2020 17:00:00 25,8 19,4 22 12 ENE 1012,4 -
13.07.2020 16:00:00 27,4 17,5 16 9 E 1012,9 -
13.07.2020 15:00:00 28,1 18,7 22 12 SE 1013,1 -
13.07.2020 14:00:00 28,5 17,9 22 12 E 1013,3 0,0
13.07.2020 13:00:00 28,4 18,4 26 14 E 1013,6 -
13.07.2020 12:00:00 27,9 21,1 26 14 ENE 1014,0 -
13.07.2020 11:00:00 27,7 22,1 18 10 E 1014,0 -
13.07.2020 10:00:00 27,7 24,1 21 11 E 1013,8 -
13.07.2020 09:00:00 26,6 23,4 4 2 SE 1013,9 -
13.07.2020 08:00:00 26,6 20,8 2 1 SW 1013,8 0,0
13.07.2020 07:00:00 26,7 20,2 5 3 ESE 1013,4 -
13.07.2020 06:00:00 26,0 18,6 5 3 NNW 1013,3 -
13.07.2020 05:00:00 25,9 18,5 8 4 N 1013,1 -
13.07.2020 04:00:00 26,1 18,7 15 8 NE 1013,4 -
13.07.2020 03:00:00 26,8 20,6 18 10 NNE 1013,7 -
13.07.2020 02:00:00 27,2 20,7 15 8 N 1014,0 0,0
13.07.2020 01:00:00 27,4 19,2 13 7 NNE 1014,3 -
13.07.2020 00:00:00 27,4 18,1 11 6 NNE 1014,4 -
12.07.2020 23:00:00 27,8 16,1 9 5 WNW 1014,3 -
12.07.2020 22:00:00 27,7 17,5 18 10 WSW 1014,1 -
12.07.2020 21:00:00 28,0 19,2 8 4 W 1013,6 -
12.07.2020 20:00:00 28,5 17,9 15 8 WSW 1013,4 0,0
12.07.2020 19:00:00 30,4 16,0 11 6 SW 1013,2 -
12.07.2020 18:00:00 30,7 15,5 4 2 S 1013,4 -
12.07.2020 17:00:00 31,7 17,9 5 3 SW 1013,7 -
12.07.2020 16:00:00 31,2 21,3 11 6 SW 1013,8 -
12.07.2020 15:00:00 30,1 19,4 16 9 WSW 1013,8 -
12.07.2020 14:00:00 30,1 16,1 21 11 SW 1013,8 0,0
12.07.2020 13:00:00 29,1 16,9 21 11 SW 1013,8 -
12.07.2020 12:00:00 28,7 17,8 16 9 SSW 1013,7 -
12.07.2020 11:00:00 27,4 20,4 15 8 SW 1013,8 -
12.07.2020 10:00:00 26,8 19,4 16 9 SW 1013,5 -
12.07.2020 09:00:00 26,5 18,6 9 5 SW 1013,4 -
12.07.2020 08:00:00 27,9 15,5 2 1 S 1013,2 0,0
12.07.2020 07:00:00 26,3 14,7 8 4 NNE 1012,6 -
12.07.2020 06:00:00 25,5 14,2 8 4 N 1012,2 -
12.07.2020 05:00:00 26,4 15,4 2 1 WNW 1011,6 -
12.07.2020 04:00:00 26,9 15,2 5 3 W 1011,4 -
12.07.2020 03:00:00 26,6 14,9 11 6 NNW 1011,7 -
12.07.2020 02:00:00 26,7 15,7 5 3 N 1012,1 0,0
12.07.2020 01:00:00 27,1 15,1 4 2 NW 1012,6 -
12.07.2020 00:00:00 27,5 14,8 8 4 SW 1013,0 -
11.07.2020 23:00:00 27,5 15,1 8 4 W 1012,9 -
11.07.2020 22:00:00 27,2 17,3 11 6 W 1013,1 -
11.07.2020 21:00:00 25,9 22,3 9 5 WSW 1012,9 -
11.07.2020 20:00:00 27,5 21,9 9 5 SW 1012,9 0,0
11.07.2020 19:00:00 28,9 21,4 9 5 SW 1012,9 -
11.07.2020 18:00:00 29,7 21,6 5 3 SW 1012,9 -
11.07.2020 17:00:00 30,4 22,0 5 3 S 1013,0 -
11.07.2020 16:00:00 29,5 22,2 9 5 SW 1013,3 -
11.07.2020 15:00:00 30,4 22,5 11 6 SW 1013,3 -
11.07.2020 14:00:00 28,7 21,2 5 3 S 1013,8 0,0
11.07.2020 13:00:00 28,5 19,1 4 2 S 1014,2 -
11.07.2020 12:00:00 28,7 20,4 8 4 SSE 1014,3 -
11.07.2020 11:00:00 28,4 21,1 8 4 ESE 1014,1 -
11.07.2020 10:00:00 27,5 19,5 5 3 E 1013,9 -
11.07.2020 09:00:00 26,8 19,9 5 3 E 1013,9 -
11.07.2020 08:00:00 27,0 15,0 8 4 E 1013,4 0,0
11.07.2020 07:00:00 25,4 13,5 9 5 NE 1013,2 -
11.07.2020 06:00:00 25,1 13,9 13 7 N 1012,9 -
11.07.2020 05:00:00 24,8 17,0 11 6 N 1012,8 -
11.07.2020 04:00:00 24,0 17,7 11 6 NNE 1012,9 -
11.07.2020 03:00:00 24,5 19,5 9 5 WNW 1013,2 -
11.07.2020 02:00:00 24,4 20,5 5 3 W 1013,7 0,0
11.07.2020 01:00:00 24,8 21,7 9 5 W 1013,9 -
11.07.2020 00:00:00 24,8 21,9 11 6 WSW 1014,1 -
10.07.2020 23:00:00 24,7 22,1 8 4 W 1014,1 -
10.07.2020 22:00:00 25,2 21,8 11 6 SW 1014,1 -
10.07.2020 21:00:00 25,3 22,1 9 5 SW 1013,7 -
10.07.2020 20:00:00 25,8 22,6 15 8 SW 1013,6 0,0
10.07.2020 19:00:00 27,0 22,3 21 11 SW 1013,5 -
10.07.2020 18:00:00 27,8 22,2 15 8 SW 1013,6 -
10.07.2020 17:00:00 29,2 22,6 13 7 W 1013,8 -
10.07.2020 16:00:00 29,0 21,7 8 4 W 1014,1 -
10.07.2020 15:00:00 29,8 22,0 5 3 S 1014,3 -
10.07.2020 14:00:00 29,5 21,9 8 4 W 1014,7 0,0
10.07.2020 13:00:00 27,2 20,5 16 9 E 1014,6 -
10.07.2020 12:00:00 27,1 19,6 18 10 E 1014,7 -
10.07.2020 11:00:00 26,8 22,2 16 9 ENE 1014,7 -
10.07.2020 10:00:00 26,3 21,9 22 12 E 1014,4 -
10.07.2020 09:00:00 25,8 21,8 15 8 ENE 1014,7 -
10.07.2020 08:00:00 26,2 21,8 11 6 E 1014,5 0,0
10.07.2020 07:00:00 24,0 21,5 8 4 NNE 1014,5 -
10.07.2020 06:00:00 23,1 21,1 9 5 N 1014,2 -
10.07.2020 05:00:00 23,7 20,8 8 4 NNE 1014,1 -
10.07.2020 04:00:00 24,3 21,9 5 3 WNW 1014,1 -
10.07.2020 03:00:00 24,2 21,8 8 4 NW 1014,5 -
10.07.2020 02:00:00 24,6 23,5 5 3 WNW 1014,6 0,0
10.07.2020 01:00:00 23,8 23,7 5 3 W 1015,0 -
10.07.2020 00:00:00 23,9 23,8 5 3 NW 1015,5 -
09.07.2020 23:00:00 24,3 23,7 0 0 N 1015,6 -
09.07.2020 22:00:00 24,6 23,3 4 2 ENE 1015,6 -
09.07.2020 21:00:00 25,2 23,8 9 5 E 1015,1 -
09.07.2020 20:00:00 25,3 23,3 8 4 E 1015,1 0,0
09.07.2020 19:00:00 25,7 22,9 11 6 E 1015,0 -
09.07.2020 18:00:00 26,4 23,2 11 6 E 1015,1 -
09.07.2020 17:00:00 27,3 23,7 9 5 E 1015,3 -
09.07.2020 16:00:00 26,7 23,7 13 7 E 1015,6 -
09.07.2020 15:00:00 26,6 23,8 16 9 E 1015,6 -
09.07.2020 14:00:00 26,7 23,7 16 9 E 1015,9 0,0
09.07.2020 13:00:00 26,4 23,4 18 10 ENE 1016,2 -
09.07.2020 12:00:00 26,2 23,2 16 9 E 1016,2 -
09.07.2020 11:00:00 25,4 22,8 22 12 E 1015,9 -
09.07.2020 10:00:00 25,0 22,2 18 10 E 1015,9 -
09.07.2020 09:00:00 24,6 21,5 11 6 E 1016,0 -
09.07.2020 08:00:00 24,1 21,2 11 6 E 1015,6 0,0
09.07.2020 07:00:00 22,7 20,7 2 1 NW 1015,3 -
09.07.2020 06:00:00 22,6 21,9 9 5 WSW 1015,1 -
09.07.2020 05:00:00 22,7 21,5 4 2 SW 1015,0 -
09.07.2020 04:00:00 22,9 20,6 9 5 NNW 1015,0 -
09.07.2020 03:00:00 23,0 20,5 4 2 W 1015,1 -
09.07.2020 02:00:00 22,9 21,5 13 7 W 1015,2 0,0
09.07.2020 01:00:00 23,0 21,0 11 6 SSE 1015,2 -
09.07.2020 00:00:00 23,3 21,1 13 7 WSW 1015,4 -
08.07.2020 23:00:00 23,5 21,3 9 5 SW 1015,6 -
08.07.2020 22:00:00 23,8 21,3 5 3 SSW 1015,5 -
08.07.2020 21:00:00 24,1 21,0 18 10 SW 1015,2 -
08.07.2020 20:00:00 24,6 20,4 9 5 SSW 1015,3 0,0
08.07.2020 19:00:00 26,1 20,4 4 2 S 1015,1 -
08.07.2020 18:00:00 26,3 20,1 15 8 SE 1015,0 -
08.07.2020 17:00:00 27,3 19,8 11 6 ESE 1015,2 -
08.07.2020 16:00:00 27,6 19,9 13 7 E 1015,2 -
08.07.2020 15:00:00 28,0 20,5 15 8 E 1015,1 -
08.07.2020 14:00:00 26,7 19,5 15 8 E 1015,1 0,0
08.07.2020 13:00:00 26,7 18,0 15 8 E 1015,2 -
08.07.2020 12:00:00 25,9 17,2 16 9 E 1015,1 -
08.07.2020 11:00:00 25,7 18,1 18 10 E 1015,0 -

tt = temperature
td = dewpoint
ff = wind speed
dd = wind direction
ppp = reduced air pressure
rr = precipitation

Next stations